1997 EVAN (1997009S16188)


On this page: IBTrACS data - Map and Plots - Positions - Intensities - Original source data

Summary

Start Jan 8
End Jan 19
Basin SP
LMI 70 kt
Sources jtwc_sh
nadi
wellington
neumann
In WMO? Yes
Previous storm 1997 HSK1897 (SI)
Previous in basin 1997 DRENA (SP)
Concurrent storms 1997 PHIL (SP)
1997 FABRIOLA (SI)
1997 RACHEL (SP)
1997 DRENA (SP)
1997 HSK1897 (SI)
1997 EVAN (SP)
1997 HANNAH (WP)
1997 HELINDA (SI)
1997 ILETTA (SI)
1997 GRETELLE (SI)
Next in basin 1997 FREDA (SP)
Next storm 1997 HANNAH (WP)

top of page IBTrACS Data: File Access

top of page HURSAT Data: File Access

Image of storm

top of page Plots:

Map of storm track will not appear if FTP is down
Time series of cyclone Maximum Sustained Wind will not appear if FTP is down
Time series of cyclone Minimum Central Pressure will not appear if FTP is down

top of page Track Data:Position

jtwc_sh nadi wellington neumann
Date Lat Lon Lat Lon Lat Lon Lat Lon
1997-01-08 12:00:00 -15.5 -171.7 -15.5 -171.7
1997-01-08 18:00:00 -16.0 -171.9 -16.0 -171.9
1997-01-09 00:00:00 -16.3 -172.3 -15.5 -172.5 -15.5 -172.5 -16.3 -172.3
1997-01-09 06:00:00 -16.5 -172.8 -15.7 -172.7 -15.7 -172.7 -16.5 -172.8
1997-01-09 12:00:00 -16.6 -173.3 -16.0 -173.0 -16.0 -173.0 -16.6 -173.3
1997-01-09 18:00:00 -16.5 -173.7 -16.3 -173.3 -16.3 -173.3 -16.5 -173.7
1997-01-10 00:00:00 -16.2 -174.0 -16.6 -173.6 -16.6 -173.6 -16.2 -174.0
1997-01-10 06:00:00 -15.9 -174.1 -16.8 -174.0 -16.8 -174.0 -15.9 -174.1
1997-01-10 12:00:00 -15.6 -174.1 -16.6 -174.6 -16.6 -174.6 -15.6 -174.1
1997-01-10 18:00:00 -15.3 -174.0 -16.1 -174.1 -16.1 -174.1 -15.3 -174.0
1997-01-11 00:00:00 -14.9 -173.6 -15.7 -173.6 -15.7 -173.6 -14.9 -173.6
1997-01-11 06:00:00 -14.4 -173.0 -15.3 -173.0 -15.3 -173.0 -14.4 -173.0
1997-01-11 12:00:00 -13.9 -172.4 -14.8 -172.3 -14.8 -172.3 -13.9 -172.4
1997-01-11 18:00:00 -13.5 -171.8 -14.3 -171.8 -14.3 -171.8 -13.5 -171.8
1997-01-12 00:00:00 -13.3 -171.3 -13.8 -171.4 -13.8 -171.4 -13.3 -171.3
1997-01-12 06:00:00 -13.2 -170.8 -13.5 -170.8 -13.5 -170.8 -13.2 -170.8
1997-01-12 12:00:00 -13.3 -170.2 -13.5 -170.2 -13.5 -170.2 -13.3 -170.2
1997-01-12 18:00:00 -13.4 -169.6 -13.6 -169.5 -13.6 -169.5 -13.4 -169.6
1997-01-13 00:00:00 -13.6 -169.0 -13.9 -168.8 -13.9 -168.8 -13.6 -169.0
1997-01-13 06:00:00 -13.9 -168.4 -14.2 -168.3 -14.2 -168.3 -13.9 -168.4
1997-01-13 12:00:00 -14.6 -167.8 -14.7 -167.8 -14.7 -167.8 -14.6 -167.8
1997-01-13 18:00:00 -15.3 -167.1 -15.4 -167.2 -15.4 -167.2 -15.3 -167.1
1997-01-14 00:00:00 -16.1 -166.5 -16.1 -166.7 -16.1 -166.7 -16.1 -166.5
1997-01-14 06:00:00 -17.0 -166.1 -16.8 -166.3 -16.8 -166.3 -17.0 -166.1
1997-01-14 12:00:00 -18.2 -165.8 -17.8 -166.1 -17.8 -166.1 -18.2 -165.8
jtwc_sh nadi wellington neumann
1997-01-14 18:00:00 -19.5 -165.7 -18.9 -166.0 -18.9 -166.0 -19.5 -165.7
1997-01-15 00:00:00 -21.2 -166.0 -21.5 -165.7 -21.5 -165.7 -21.2 -166.0
1997-01-15 06:00:00 -22.9 -166.6 -23.0 -165.8 -23.0 -165.8 -22.9 -166.6
1997-01-15 12:00:00 -24.7 -167.1 -25.0 -166.5 -25.0 -166.5 -24.7 -167.1
1997-01-15 18:00:00 -26.6 -167.9 -27.2 -167.8 -27.2 -167.8 -26.6 -167.9
1997-01-16 00:00:00 -28.3 -169.0 -28.8 -169.3 -28.8 -169.3 -28.3 -169.0
1997-01-16 06:00:00 -29.9 -169.7 -30.0 -170.0 -30.0 -170.0 -29.9 -169.7
1997-01-16 12:00:00 -31.7 -170.0 -31.7 -170.8 -31.1 -170.8 -31.7 -170.0
1997-01-16 18:00:00 -34.1 -169.5 -33.0 -171.0 -33.0 -171.0 -34.1 -169.5
1997-01-17 00:00:00 -36.3 -168.3 -34.5 -170.5 -34.5 -170.5 -36.3 -168.3
1997-01-17 06:00:00 -38.5 -167.1 -36.5 -169.5 -36.5 -169.5 -38.5 -167.1
1997-01-17 12:00:00 -40.5 -166.0 -39.5 -167.5 -40.5 -166.0
1997-01-17 18:00:00 -42.0 -164.5
1997-01-18 00:00:00 -44.5 -161.5
1997-01-18 06:00:00 -47.0 -157.5
1997-01-18 12:00:00 -48.5 -153.5
1997-01-18 18:00:00 -49.8 -149.5
1997-01-19 00:00:00 -50.0 -145.0

top of pageTrack Data:Intensity

jtwc_sh nadi wellington neumann
Date Wind Pres Wind Pres Wind Pres Wind Pres
1997-01-08 12:00:00 15. 15.
1997-01-08 18:00:00 20. 20.
1997-01-09 00:00:00 25. 15. 1004. 15. 1004. 25.
1997-01-09 06:00:00 30. 15. 1004. 15. 1004. 30.
1997-01-09 12:00:00 35. 15. 1004. 15. 1004. 35.
1997-01-09 18:00:00 35. 15. 1004. 15. 1004. 35.
1997-01-10 00:00:00 35. 20. 1002. 20. 1002. 35.
1997-01-10 06:00:00 35. 20. 1002. 20. 1002. 35.
1997-01-10 12:00:00 35. 20. 1002. 20. 1002. 35.
1997-01-10 18:00:00 35. 20. 1002. 20. 1002. 35.
1997-01-11 00:00:00 40. 25. 1000. 25. 1000. 40.
1997-01-11 06:00:00 45. 25. 1000. 25. 1000. 45.
1997-01-11 12:00:00 50. 25. 999. 25. 999. 50.
1997-01-11 18:00:00 55. 25. 999. 25. 999. 55.
1997-01-12 00:00:00 55. 25. 999. 25. 999. 55.
1997-01-12 06:00:00 50. 30. 997. 30. 997. 50.
1997-01-12 12:00:00 45. 30. 997. 30. 997. 45.
1997-01-12 18:00:00 45. 35. 995. 35. 995. 45.
1997-01-13 00:00:00 50. 40. 990. 40. 990. 50.
1997-01-13 06:00:00 55. 45. 987. 45. 987. 55.
1997-01-13 12:00:00 60. 50. 985. 50. 985. 60.
1997-01-13 18:00:00 65. 55. 980. 55. 980. 65.
1997-01-14 00:00:00 65. 60. 975. 60. 975. 65.
1997-01-14 06:00:00 65. 60. 975. 60. 975. 65.
1997-01-14 12:00:00 65. 65. 970. 65. 970. 65.
jtwc_sh nadi wellington neumann
1997-01-14 18:00:00 65. 65. 970. 65. 970. 65.
1997-01-15 00:00:00 70. 70. 965. 70. 965. 70.
1997-01-15 06:00:00 70. 70. 965. 70. 965. 70.
1997-01-15 12:00:00 65. 65. 970. 65. 970. 65.
1997-01-15 18:00:00 60. 60. 975. 60. 975. 60.
1997-01-16 00:00:00 55. 55. 980. 55. 980. 55.
1997-01-16 06:00:00 50. 50. 985. 50. 985. 50.
1997-01-16 12:00:00 45. 45. 987. 45. 987. 45.
1997-01-16 18:00:00 40. 40. 990. 40. 990. 40.
1997-01-17 00:00:00 40. 30. 996. 30. 996. 40.
1997-01-17 06:00:00 35. 30. 996. 30. 996. 35.
1997-01-17 12:00:00 35. 30. 994. 35.
1997-01-17 18:00:00 30. 990.
1997-01-18 00:00:00 30. 986.
1997-01-18 06:00:00 30. 986.
1997-01-18 12:00:00 30. 986.
1997-01-18 18:00:00 30. 988.
1997-01-19 00:00:00 30. 990.

top of page Links to source data

Source Source file Format
jtwc_sh bsh171997.txt ATCF
nadi RSMC-Nadi-1996-97-BT-Data.txt:Line=99:EVAN Text table
wellington TC_BT_1967_2006.csv:Line=5235:EVAN Text table
neumann tracks.sh:Storm=1081:EVAN:BSH171997:JTWC&NZeal19053 HURDAT